CID weather

The Eastern Iowa Airport
Cedar Rapids, Iowa, United States

Public forecast

Using degrees Fahrenheit for public forecast. Weather courtesy of forecast.io.

Current aviation weather report (METAR) for The Eastern Iowa Airport

Retrieved 2019/12/08 19:52 UTC (58 minutes ago):

KCID 081952Z 23005KT 9SM CLR 07/03 A2977 RMK AO2 SLP085 T00720028

Aviation forecast (TAF) for The Eastern Iowa Airport

Retrieved 2019/12/08 18:22 UTC (2 hours ago):

TAF KCID 081720Z 0818/0918 19012KT P6SM BKN070 FM090200 12004KT P6SM OVC025 FM090400 12004KT 5SM BR SCT007 OVC015 FM090700 15004KT 3SM -DZ BR OVC008 FM091000 15004KT 2SM -DZ BR OVC004